sensor_id;sensor_type;location;lat;lon;timestamp;pressure;altitude;pressure_sealevel;temperature;humidity
44675;BME280;30388;52.038;-1.478;2023-02-26T00:00:11;64737.78;;;0.88;100.00
44675;BME280;30388;52.038;-1.478;2023-02-26T00:02:39;64719.25;;;0.91;100.00
44675;BME280;30388;52.038;-1.478;2023-02-26T00:05:07;64700.37;;;0.67;100.00
44675;BME280;30388;52.038;-1.478;2023-02-26T00:07:34;64714.34;;;0.85;100.00
44675;BME280;30388;52.038;-1.478;2023-02-26T00:10:03;64727.82;;;1.02;100.00
44675;BME280;30388;52.038;-1.478;2023-02-26T00:12:31;64710.63;;;0.81;100.00
44675;BME280;30388;52.038;-1.478;2023-02-26T00:14:58;64706.04;;;0.74;100.00
44675;BME280;30388;52.038;-1.478;2023-02-26T00:17:33;64746.26;;;0.99;100.00
44675;BME280;30388;52.038;-1.478;2023-02-26T00:20:04;64725.96;;;0.73;100.00
44675;BME280;30388;52.038;-1.478;2023-02-26T00:22:32;64755.86;;;1.38;100.00
44675;BME280;30388;52.038;-1.478;2023-02-26T00:24:59;64777.28;;;1.16;100.00
44675;BME280;30388;52.038;-1.478;2023-02-26T00:27:26;64799.56;;;1.45;100.00
44675;BME280;30388;52.038;-1.478;2023-02-26T00:29:53;64743.37;;;0.95;100.00
44675;BME280;30388;52.038;-1.478;2023-02-26T00:32:21;64737.12;;;1.14;100.00
44675;BME280;30388;52.038;-1.478;2023-02-26T00:34:54;64694.48;;;0.60;100.00
44675;BME280;30388;52.038;-1.478;2023-02-26T00:37:37;64669.13;;;0.49;100.00
44675;BME280;30388;52.038;-1.478;2023-02-26T00:40:16;64627.34;;;-0.04;100.00
44675;BME280;30388;52.038;-1.478;2023-02-26T00:42:48;64627.75;;;0.19;100.00
44675;BME280;30388;52.038;-1.478;2023-02-26T00:45:16;64651.23;;;0.49;100.00
44675;BME280;30388;52.038;-1.478;2023-02-26T00:47:48;64663.42;;;0.65;100.00
44675;BME280;30388;52.038;-1.478;2023-02-26T00:50:18;64664.08;;;0.65;100.00
44675;BME280;30388;52.038;-1.478;2023-02-26T00:52:56;64649.42;;;0.24;100.00
44675;BME280;30388;52.038;-1.478;2023-02-26T00:55:26;64679.06;;;0.62;100.00
44675;BME280;30388;52.038;-1.478;2023-02-26T00:57:53;64670.00;;;0.73;100.00
44675;BME280;30388;52.038;-1.478;2023-02-26T01:00:20;64701.19;;;0.90;100.00
44675;BME280;30388;52.038;-1.478;2023-02-26T01:02:48;64687.20;;;0.73;100.00
44675;BME280;30388;52.038;-1.478;2023-02-26T01:05:16;64674.18;;;0.77;100.00
44675;BME280;30388;52.038;-1.478;2023-02-26T01:07:46;64627.46;;;0.18;100.00
44675;BME280;30388;52.038;-1.478;2023-02-26T01:10:14;64634.59;;;0.28;100.00
44675;BME280;30388;52.038;-1.478;2023-02-26T01:12:42;64641.32;;;0.37;100.00
44675;BME280;30388;52.038;-1.478;2023-02-26T01:15:10;64634.54;;;0.27;100.00
44675;BME280;30388;52.038;-1.478;2023-02-26T01:17:43;64662.95;;;0.63;100.00
44675;BME280;30388;52.038;-1.478;2023-02-26T01:20:15;64630.01;;;0.21;100.00
44675;BME280;30388;52.038;-1.478;2023-02-26T01:22:51;64627.73;;;0.18;100.00
44675;BME280;30388;52.038;-1.478;2023-02-26T01:25:24;64647.72;;;0.44;100.00
44675;BME280;30388;52.038;-1.478;2023-02-26T01:27:53;64687.16;;;0.50;100.00
44675;BME280;30388;52.038;-1.478;2023-02-26T01:30:21;64669.84;;;0.72;100.00
44675;BME280;30388;52.038;-1.478;2023-02-26T01:33:00;64655.00;;;0.53;100.00
44675;BME280;30388;52.038;-1.478;2023-02-26T01:35:38;64663.88;;;0.65;100.00
44675;BME280;30388;52.038;-1.478;2023-02-26T01:38:16;64628.57;;;0.19;100.00
44675;BME280;30388;52.038;-1.478;2023-02-26T01:41:04;64634.52;;;0.27;100.00
44675;BME280;30388;52.038;-1.478;2023-02-26T01:43:42;64666.52;;;0.68;100.00
44675;BME280;30388;52.038;-1.478;2023-02-26T01:46:17;64675.62;;;0.80;100.00
44675;BME280;30388;52.038;-1.478;2023-02-26T01:48:49;64680.81;;;0.87;100.00
44675;BME280;30388;52.038;-1.478;2023-02-26T01:51:18;64657.76;;;0.57;100.00
44675;BME280;30388;52.038;-1.478;2023-02-26T01:53:45;64659.35;;;0.59;100.00
44675;BME280;30388;52.038;-1.478;2023-02-26T01:56:15;64673.53;;;0.77;100.00
44675;BME280;30388;52.038;-1.478;2023-02-26T01:58:46;64635.84;;;0.29;100.00
44675;BME280;30388;52.038;-1.478;2023-02-26T02:01:15;64660.24;;;0.61;100.00
44675;BME280;30388;52.038;-1.478;2023-02-26T02:03:43;64667.27;;;0.69;100.00
44675;BME280;30388;52.038;-1.478;2023-02-26T02:06:17;64671.96;;;0.52;100.00
44675;BME280;30388;52.038;-1.478;2023-02-26T02:08:46;64687.84;;;0.74;100.00
44675;BME280;30388;52.038;-1.478;2023-02-26T02:11:14;64694.84;;;1.05;100.00
44675;BME280;30388;52.038;-1.478;2023-02-26T02:13:52;64684.36;;;0.92;100.00
44675;BME280;30388;52.038;-1.478;2023-02-26T02:16:30;64685.83;;;0.48;100.00
44675;BME280;30388;52.038;-1.478;2023-02-26T02:19:08;64655.62;;;0.55;100.00
44675;BME280;30388;52.038;-1.478;2023-02-26T02:21:52;64680.21;;;0.41;100.00
44675;BME280;30388;52.038;-1.478;2023-02-26T02:24:27;64659.58;;;0.60;100.00
44675;BME280;30388;52.038;-1.478;2023-02-26T02:27:02;64621.74;;;0.11;100.00
44675;BME280;30388;52.038;-1.478;2023-02-26T02:29:59;64648.36;;;0.46;100.00
44675;BME280;30388;52.038;-1.478;2023-02-26T02:32:32;64604.76;;;-0.10;100.00
44675;BME280;30388;52.038;-1.478;2023-02-26T02:35:08;64565.90;;;-0.34;100.00
44675;BME280;30388;52.038;-1.478;2023-02-26T02:37:42;64538.78;;;-0.68;100.00
44675;BME280;30388;52.038;-1.478;2023-02-26T02:40:14;64564.64;;;-0.34;100.00
44675;BME280;30388;52.038;-1.478;2023-02-26T02:42:45;64585.37;;;-0.35;100.00
44675;BME280;30388;52.038;-1.478;2023-02-26T02:45:20;64562.61;;;-0.37;100.00
44675;BME280;30388;52.038;-1.478;2023-02-26T02:47:55;64564.98;;;-0.61;100.00
44675;BME280;30388;52.038;-1.478;2023-02-26T02:50:26;64591.96;;;-0.00;100.00
44675;BME280;30388;52.038;-1.478;2023-02-26T02:52:57;64566.54;;;-0.32;100.00
44675;BME280;30388;52.038;-1.478;2023-02-26T02:55:31;64596.67;;;0.06;100.00
44675;BME280;30388;52.038;-1.478;2023-02-26T02:58:03;64585.42;;;0.14;100.00
44675;BME280;30388;52.038;-1.478;2023-02-26T03:00:35;64555.39;;;-0.25;100.00
44675;BME280;30388;52.038;-1.478;2023-02-26T03:03:10;64566.35;;;-0.32;100.00
44675;BME280;30388;52.038;-1.478;2023-02-26T03:05:39;64526.81;;;-0.61;100.00
44675;BME280;30388;52.038;-1.478;2023-02-26T03:08:10;64549.81;;;-0.54;100.00
44675;BME280;30388;52.038;-1.478;2023-02-26T03:10:39;64542.67;;;-0.41;100.00
44675;BME280;30388;52.038;-1.478;2023-02-26T03:13:14;64520.31;;;-0.43;100.00
44675;BME280;30388;52.038;-1.478;2023-02-26T03:15:56;64553.77;;;-0.27;100.00
44675;BME280;30388;52.038;-1.478;2023-02-26T03:18:35;64551.38;;;-0.29;100.00
44675;BME280;30388;52.038;-1.478;2023-02-26T03:21:12;64593.60;;;0.24;100.00
44675;BME280;30388;52.038;-1.478;2023-02-26T03:23:48;64597.79;;;-0.19;100.00
44675;BME280;30388;52.038;-1.478;2023-02-26T03:26:20;64563.25;;;-0.15;100.00
44675;BME280;30388;52.038;-1.478;2023-02-26T03:28:55;64576.81;;;0.03;100.00
44675;BME280;30388;52.038;-1.478;2023-02-26T03:31:30;64621.93;;;0.12;100.00
44675;BME280;30388;52.038;-1.478;2023-02-26T03:34:02;64604.67;;;0.16;100.00
44675;BME280;30388;52.038;-1.478;2023-02-26T03:36:36;64597.49;;;0.30;100.00
44675;BME280;30388;52.038;-1.478;2023-02-26T03:39:08;64597.40;;;0.29;100.00
44675;BME280;30388;52.038;-1.478;2023-02-26T03:41:41;64588.36;;;-0.04;100.00
44675;BME280;30388;52.038;-1.478;2023-02-26T03:44:14;64614.85;;;0.03;100.00
44675;BME280;30388;52.038;-1.478;2023-02-26T03:46:47;64602.07;;;0.36;100.00
44675;BME280;30388;52.038;-1.478;2023-02-26T03:49:20;64559.24;;;-0.19;100.00
44675;BME280;30388;52.038;-1.478;2023-02-26T03:51:50;64581.89;;;0.10;100.00
44675;BME280;30388;52.038;-1.478;2023-02-26T03:54:21;64589.07;;;0.19;100.00
44675;BME280;30388;52.038;-1.478;2023-02-26T03:56:51;64583.76;;;-0.10;100.00
44675;BME280;30388;52.038;-1.478;2023-02-26T03:59:19;64558.70;;;-0.20;100.00
44675;BME280;30388;52.038;-1.478;2023-02-26T04:01:52;64553.46;;;-0.26;100.00
44675;BME280;30388;52.038;-1.478;2023-02-26T04:04:24;64559.22;;;-0.19;100.00
44675;BME280;30388;52.038;-1.478;2023-02-26T04:06:54;64572.80;;;-0.02;100.00
44675;BME280;30388;52.038;-1.478;2023-02-26T04:09:21;64558.31;;;-0.20;100.00
44675;BME280;30388;52.038;-1.478;2023-02-26T04:11:50;64600.70;;;0.11;100.00
44675;BME280;30388;52.038;-1.478;2023-02-26T04:14:19;64588.90;;;-0.04;100.00
44675;BME280;30388;52.038;-1.478;2023-02-26T04:16:46;64549.83;;;-0.31;100.00
44675;BME280;30388;52.038;-1.478;2023-02-26T04:19:14;64542.15;;;-0.41;100.00
44675;BME280;30388;52.038;-1.478;2023-02-26T04:21:41;64536.61;;;-0.48;100.00
44675;BME280;30388;52.038;-1.478;2023-02-26T04:24:08;64507.18;;;-0.86;100.00
44675;BME280;30388;52.038;-1.478;2023-02-26T04:26:36;64513.06;;;-0.52;100.00
44675;BME280;30388;52.038;-1.478;2023-02-26T04:29:02;64510.29;;;-0.56;100.00
44675;BME280;30388;52.038;-1.478;2023-02-26T04:31:30;64547.10;;;-0.34;100.00
44675;BME280;30388;52.038;-1.478;2023-02-26T04:33:57;64548.72;;;-0.33;100.00
44675;BME280;30388;52.038;-1.478;2023-02-26T04:36:25;64553.59;;;-0.26;100.00
44675;BME280;30388;52.038;-1.478;2023-02-26T04:38:52;64551.13;;;-0.52;100.00
44675;BME280;30388;52.038;-1.478;2023-02-26T04:41:19;64557.13;;;-0.44;100.00
44675;BME280;30388;52.038;-1.478;2023-02-26T04:43:47;64572.50;;;-0.24;100.00
44675;BME280;30388;52.038;-1.478;2023-02-26T04:46:14;64578.06;;;-0.17;100.00
44675;BME280;30388;52.038;-1.478;2023-02-26T04:48:44;64553.16;;;-0.27;100.00
44675;BME280;30388;52.038;-1.478;2023-02-26T04:51:10;64544.16;;;-0.39;100.00
44675;BME280;30388;52.038;-1.478;2023-02-26T04:53:37;64552.23;;;-0.29;100.00
44675;BME280;30388;52.038;-1.478;2023-02-26T04:56:05;64556.06;;;-0.23;100.00
44675;BME280;30388;52.038;-1.478;2023-02-26T04:58:32;64561.80;;;-0.16;100.00
44675;BME280;30388;52.038;-1.478;2023-02-26T05:00:59;64582.62;;;-0.11;100.00
44675;BME280;30388;52.038;-1.478;2023-02-26T05:03:26;64574.19;;;-0.01;100.00
44675;BME280;30388;52.038;-1.478;2023-02-26T05:05:53;64546.12;;;-0.37;100.00
44675;BME280;30388;52.038;-1.478;2023-02-26T05:08:20;64540.28;;;-0.44;100.00
44675;BME280;30388;52.038;-1.478;2023-02-26T05:10:47;64537.32;;;-0.47;100.00
44675;BME280;30388;52.038;-1.478;2023-02-26T05:13:15;64547.60;;;-0.34;100.00
44675;BME280;30388;52.038;-1.478;2023-02-26T05:15:47;64529.23;;;-0.58;100.00
44675;BME280;30388;52.038;-1.478;2023-02-26T05:18:15;64523.76;;;-0.65;100.00
44675;BME280;30388;52.038;-1.478;2023-02-26T05:20:44;64529.93;;;-0.57;100.00
44675;BME280;30388;52.038;-1.478;2023-02-26T05:23:11;64578.52;;;-0.43;100.00
44675;BME280;30388;52.038;-1.478;2023-02-26T05:25:37;64530.51;;;-0.29;100.00
44675;BME280;30388;52.038;-1.478;2023-02-26T05:28:04;64528.46;;;-0.59;100.00
44675;BME280;30388;52.038;-1.478;2023-02-26T05:30:31;64524.22;;;-0.64;100.00
44675;BME280;30388;52.038;-1.478;2023-02-26T05:32:57;64530.99;;;-0.55;100.00
44675;BME280;30388;52.038;-1.478;2023-02-26T05:35:25;64521.71;;;-0.41;100.00
44675;BME280;30388;52.038;-1.478;2023-02-26T05:37:52;64510.94;;;-0.81;100.00
44675;BME280;30388;52.038;-1.478;2023-02-26T05:40:18;64526.13;;;-0.35;100.00
44675;BME280;30388;52.038;-1.478;2023-02-26T05:42:46;64529.77;;;-0.58;100.00
44675;BME280;30388;52.038;-1.478;2023-02-26T05:45:13;64545.21;;;-0.37;100.00
44675;BME280;30388;52.038;-1.478;2023-02-26T05:47:40;64496.72;;;-0.73;100.00
44675;BME280;30388;52.038;-1.478;2023-02-26T05:50:08;64498.75;;;-0.70;100.00
44675;BME280;30388;52.038;-1.478;2023-02-26T05:52:35;64514.96;;;-0.50;100.00
44675;BME280;30388;52.038;-1.478;2023-02-26T05:55:03;64537.19;;;-0.48;100.00
44675;BME280;30388;52.038;-1.478;2023-02-26T05:57:31;64523.23;;;-0.39;100.00
44675;BME280;30388;52.038;-1.478;2023-02-26T05:59:58;64547.26;;;-0.35;100.00
44675;BME280;30388;52.038;-1.478;2023-02-26T06:02:26;64551.41;;;-0.52;100.00
44675;BME280;30388;52.038;-1.478;2023-02-26T06:04:54;64544.07;;;-0.39;100.00
44675;BME280;30388;52.038;-1.478;2023-02-26T06:07:21;64551.43;;;-0.30;100.00
44675;BME280;30388;52.038;-1.478;2023-02-26T06:09:48;64570.13;;;-0.05;100.00
44675;BME280;30388;52.038;-1.478;2023-02-26T06:12:15;64585.97;;;0.15;100.00
44675;BME280;30388;52.038;-1.478;2023-02-26T06:14:44;64573.21;;;0.25;100.00
44675;BME280;30388;52.038;-1.478;2023-02-26T06:17:11;64592.75;;;-0.25;100.00
44675;BME280;30388;52.038;-1.478;2023-02-26T06:19:38;64587.65;;;-0.04;100.00
44675;BME280;30388;52.038;-1.478;2023-02-26T06:22:05;64572.23;;;-0.03;100.00
44675;BME280;30388;52.038;-1.478;2023-02-26T06:24:32;64575.54;;;0.02;100.00
44675;BME280;30388;52.038;-1.478;2023-02-26T06:26:59;64568.66;;;-0.07;100.00
44675;BME280;30388;52.038;-1.478;2023-02-26T06:29:26;64566.24;;;-0.11;100.00
44675;BME280;30388;52.038;-1.478;2023-02-26T06:31:53;64591.89;;;0.23;100.00
44675;BME280;30388;52.038;-1.478;2023-02-26T06:34:21;64591.93;;;0.22;100.00
44675;BME280;30388;52.038;-1.478;2023-02-26T06:36:48;64606.31;;;0.18;100.00
44675;BME280;30388;52.038;-1.478;2023-02-26T06:39:16;64572.59;;;-0.02;100.00
44675;BME280;30388;52.038;-1.478;2023-02-26T06:41:43;64595.62;;;0.27;100.00
44675;BME280;30388;52.038;-1.478;2023-02-26T06:44:11;64603.44;;;0.38;100.00
44675;BME280;30388;52.038;-1.478;2023-02-26T06:46:38;64596.19;;;0.06;100.00
44675;BME280;30388;52.038;-1.478;2023-02-26T06:49:05;64596.88;;;-0.21;100.00
44675;BME280;30388;52.038;-1.478;2023-02-26T06:51:33;64603.25;;;0.14;100.00
44675;BME280;30388;52.038;-1.478;2023-02-26T06:54:00;64587.36;;;-0.05;100.00
44675;BME280;30388;52.038;-1.478;2023-02-26T06:56:27;64606.19;;;0.41;100.00
44675;BME280;30388;52.038;-1.478;2023-02-26T06:58:54;64611.88;;;-0.01;100.00
44675;BME280;30388;52.038;-1.478;2023-02-26T07:01:22;64619.35;;;0.09;100.00
44675;BME280;30388;52.038;-1.478;2023-02-26T07:03:49;64628.89;;;0.21;100.00
44675;BME280;30388;52.038;-1.478;2023-02-26T07:06:17;64617.06;;;0.33;100.00
44675;BME280;30388;52.038;-1.478;2023-02-26T07:08:44;64634.47;;;0.55;100.00
44675;BME280;30388;52.038;-1.478;2023-02-26T07:11:11;64645.63;;;0.68;100.00
44675;BME280;30388;52.038;-1.478;2023-02-26T07:13:38;64640.46;;;0.35;100.00
44675;BME280;30388;52.038;-1.478;2023-02-26T07:16:06;64666.47;;;0.96;100.00
44675;BME280;30388;52.038;-1.478;2023-02-26T07:18:33;64641.08;;;0.37;100.00
44675;BME280;30388;52.038;-1.478;2023-02-26T07:21:01;64611.93;;;0.48;100.00
44675;BME280;30388;52.038;-1.478;2023-02-26T07:23:29;64632.03;;;0.52;100.00
44675;BME280;30388;52.038;-1.478;2023-02-26T07:25:56;64650.82;;;0.75;100.00
44675;BME280;30388;52.038;-1.478;2023-02-26T07:28:24;64648.75;;;0.46;100.00
44675;BME280;30388;52.038;-1.478;2023-02-26T07:30:53;64637.79;;;0.59;100.00
44675;BME280;30388;52.038;-1.478;2023-02-26T07:33:20;64645.85;;;0.42;100.00
44675;BME280;30388;52.038;-1.478;2023-02-26T07:35:47;64651.84;;;0.49;100.00
44675;BME280;30388;52.038;-1.478;2023-02-26T07:38:15;64651.00;;;0.49;100.00
44675;BME280;30388;52.038;-1.478;2023-02-26T07:40:43;64668.93;;;0.72;100.00
44675;BME280;30388;52.038;-1.478;2023-02-26T07:43:11;64652.41;;;0.51;100.00
44675;BME280;30388;52.038;-1.478;2023-02-26T07:45:38;64648.38;;;0.45;100.00
44675;BME280;30388;52.038;-1.478;2023-02-26T07:48:05;64619.56;;;0.09;100.00
44675;BME280;30388;52.038;-1.478;2023-02-26T07:50:33;64612.27;;;-0.01;100.00
44675;BME280;30388;52.038;-1.478;2023-02-26T07:53:00;64643.76;;;0.40;100.00
44675;BME280;30388;52.038;-1.478;2023-02-26T07:55:27;64649.09;;;0.73;100.00
44675;BME280;30388;52.038;-1.478;2023-02-26T07:57:54;64682.90;;;0.90;100.00
44675;BME280;30388;52.038;-1.478;2023-02-26T08:00:22;64706.35;;;0.97;100.00
44675;BME280;30388;52.038;-1.478;2023-02-26T08:02:49;64652.95;;;0.52;100.00
44675;BME280;30388;52.038;-1.478;2023-02-26T08:05:17;64635.72;;;0.29;100.00
44675;BME280;30388;52.038;-1.478;2023-02-26T08:07:44;64647.97;;;0.45;100.00
44675;BME280;30388;52.038;-1.478;2023-02-26T08:10:12;64599.72;;;0.10;100.00
44675;BME280;30388;52.038;-1.478;2023-02-26T08:12:39;64607.53;;;0.20;100.00
44675;BME280;30388;52.038;-1.478;2023-02-26T08:15:07;64616.33;;;0.53;100.00
44675;BME280;30388;52.038;-1.478;2023-02-26T08:17:35;64626.32;;;0.44;100.00
44675;BME280;30388;52.038;-1.478;2023-02-26T08:20:02;64639.96;;;0.35;100.00
44675;BME280;30388;52.038;-1.478;2023-02-26T08:22:31;64653.94;;;0.53;100.00
44675;BME280;30388;52.038;-1.478;2023-02-26T08:24:58;64658.40;;;0.85;100.00
44675;BME280;30388;52.038;-1.478;2023-02-26T08:27:25;64672.52;;;0.76;100.00
44675;BME280;30388;52.038;-1.478;2023-02-26T08:29:52;64659.46;;;0.60;100.00
44675;BME280;30388;52.038;-1.478;2023-02-26T08:32:20;64674.94;;;0.80;100.00
44675;BME280;30388;52.038;-1.478;2023-02-26T08:34:47;64674.35;;;0.79;100.00
44675;BME280;30388;52.038;-1.478;2023-02-26T08:37:13;64659.56;;;0.86;100.00
44675;BME280;30388;52.038;-1.478;2023-02-26T08:39:41;64707.47;;;1.21;100.00
44675;BME280;30388;52.038;-1.478;2023-02-26T08:42:08;64672.27;;;0.76;100.00
44675;BME280;30388;52.038;-1.478;2023-02-26T08:44:36;64701.10;;;1.14;100.00
44675;BME280;30388;52.038;-1.478;2023-02-26T08:47:03;64706.94;;;1.21;100.00
44675;BME280;30388;52.038;-1.478;2023-02-26T08:49:30;64724.64;;;1.43;100.00
44675;BME280;30388;52.038;-1.478;2023-02-26T08:51:57;64727.96;;;1.47;100.00
44675;BME280;30388;52.038;-1.478;2023-02-26T08:54:25;64762.40;;;1.68;100.00
44675;BME280;30388;52.038;-1.478;2023-02-26T08:56:52;64765.10;;;1.72;100.00
44675;BME280;30388;52.038;-1.478;2023-02-26T08:59:19;64750.42;;;1.54;100.00
44675;BME280;30388;52.038;-1.478;2023-02-26T09:01:46;64773.72;;;1.61;100.00
44675;BME280;30388;52.038;-1.478;2023-02-26T09:04:14;64786.56;;;2.00;100.00
44675;BME280;30388;52.038;-1.478;2023-02-26T09:06:41;64780.02;;;1.69;100.00
44675;BME280;30388;52.038;-1.478;2023-02-26T09:09:08;64779.72;;;1.90;100.00
44675;BME280;30388;52.038;-1.478;2023-02-26T09:11:35;64780.78;;;1.91;100.00
44675;BME280;30388;52.038;-1.478;2023-02-26T09:14:04;64783.72;;;1.74;100.00
44675;BME280;30388;52.038;-1.478;2023-02-26T09:16:31;64755.33;;;1.82;100.00
44675;BME280;30388;52.038;-1.478;2023-02-26T09:18:58;64771.90;;;1.81;100.00
44675;BME280;30388;52.038;-1.478;2023-02-26T09:21:25;64801.60;;;1.97;100.00
44675;BME280;30388;52.038;-1.478;2023-02-26T09:23:52;64831.93;;;2.36;100.00
44675;BME280;30388;52.038;-1.478;2023-02-26T09:26:19;64829.06;;;2.55;100.00
44675;BME280;30388;52.038;-1.478;2023-02-26T09:28:47;64810.01;;;2.08;100.00
44675;BME280;30388;52.038;-1.478;2023-02-26T09:31:14;64809.42;;;2.07;100.00
44675;BME280;30388;52.038;-1.478;2023-02-26T09:33:41;64830.63;;;2.56;100.00
44675;BME280;30388;52.038;-1.478;2023-02-26T09:36:08;64850.13;;;2.80;100.00
44675;BME280;30388;52.038;-1.478;2023-02-26T09:38:36;64838.51;;;2.45;100.00
44675;BME280;30388;52.038;-1.478;2023-02-26T09:41:06;64868.37;;;2.55;100.00
44675;BME280;30388;52.038;-1.478;2023-02-26T09:43:48;64855.61;;;2.66;100.00
44675;BME280;30388;52.038;-1.478;2023-02-26T09:46:29;64862.08;;;2.74;100.00
44675;BME280;30388;52.038;-1.478;2023-02-26T09:49:06;64876.27;;;2.92;100.00
44675;BME280;30388;52.038;-1.478;2023-02-26T09:51:37;64901.00;;;3.23;100.00
44675;BME280;30388;52.038;-1.478;2023-02-26T09:54:15;64902.66;;;2.99;100.00
44675;BME280;30388;52.038;-1.478;2023-02-26T09:56:44;64928.43;;;3.31;100.00
44675;BME280;30388;52.038;-1.478;2023-02-26T09:59:13;64932.67;;;3.14;100.00
44675;BME280;30388;52.038;-1.478;2023-02-26T10:01:46;64940.56;;;3.25;100.00
44675;BME280;30388;52.038;-1.478;2023-02-26T10:04:25;64921.94;;;3.50;100.00
44675;BME280;30388;52.038;-1.478;2023-02-26T10:07:03;64944.81;;;3.30;100.00
44675;BME280;30388;52.038;-1.478;2023-02-26T10:09:45;64949.86;;;3.37;100.00
44675;BME280;30388;52.038;-1.478;2023-02-26T10:12:17;64937.23;;;3.69;100.00
44675;BME280;30388;52.038;-1.478;2023-02-26T10:14:50;64936.05;;;3.42;100.00
44675;BME280;30388;52.038;-1.478;2023-02-26T10:17:25;64905.00;;;3.02;100.00
44675;BME280;30388;52.038;-1.478;2023-02-26T10:19:58;64902.57;;;3.25;100.00
44675;BME280;30388;52.038;-1.478;2023-02-26T10:22:29;64877.83;;;2.94;100.00
44675;BME280;30388;52.038;-1.478;2023-02-26T10:25:08;64925.41;;;3.28;100.00
44675;BME280;30388;52.038;-1.478;2023-02-26T10:27:50;64909.55;;;3.07;100.00
44675;BME280;30388;52.038;-1.478;2023-02-26T10:30:27;64920.99;;;3.00;100.00
44675;BME280;30388;52.038;-1.478;2023-02-26T10:33:01;64911.69;;;3.37;100.00
44675;BME280;30388;52.038;-1.478;2023-02-26T10:35:32;64948.91;;;3.84;100.00
44675;BME280;30388;52.038;-1.478;2023-02-26T10:38:05;64926.57;;;3.56;100.00
44675;BME280;30388;52.038;-1.478;2023-02-26T10:40:41;64938.89;;;3.23;100.00
44675;BME280;30388;52.038;-1.478;2023-02-26T10:43:12;64921.72;;;3.50;100.00
44675;BME280;30388;52.038;-1.478;2023-02-26T10:45:51;64974.97;;;3.69;100.00
44675;BME280;30388;52.038;-1.478;2023-02-26T10:48:29;65026.55;;;4.35;100.00
44675;BME280;30388;52.038;-1.478;2023-02-26T10:51:07;65040.07;;;4.51;100.00
44675;BME280;30388;52.038;-1.478;2023-02-26T10:53:36;65067.24;;;4.60;100.00
44675;BME280;30388;52.038;-1.478;2023-02-26T10:56:09;65054.77;;;4.43;100.00
44675;BME280;30388;52.038;-1.478;2023-02-26T10:58:38;64969.27;;;3.61;100.00
44675;BME280;30388;52.038;-1.478;2023-02-26T11:01:12;64979.82;;;3.75;100.00
44675;BME280;30388;52.038;-1.478;2023-02-26T11:03:44;64905.06;;;3.29;100.00
44675;BME280;30388;52.038;-1.478;2023-02-26T11:06:19;64884.44;;;2.76;100.00
44675;BME280;30388;52.038;-1.478;2023-02-26T11:08:49;64917.36;;;3.44;100.00
44675;BME280;30388;52.038;-1.478;2023-02-26T11:11:52;64925.05;;;3.05;100.00
44675;BME280;30388;52.038;-1.478;2023-02-26T11:14:21;64917.79;;;2.95;100.00
44675;BME280;30388;52.038;-1.478;2023-02-26T11:16:51;64947.91;;;3.35;100.00
44675;BME280;30388;52.038;-1.478;2023-02-26T11:19:24;64947.17;;;3.33;100.00
44675;BME280;30388;52.038;-1.478;2023-02-26T11:21:52;64976.83;;;3.72;100.00
44675;BME280;30388;52.038;-1.478;2023-02-26T11:24:26;64913.92;;;2.92;100.00
44675;BME280;30388;52.038;-1.478;2023-02-26T11:26:57;64958.84;;;3.48;100.00
44675;BME280;30388;52.038;-1.478;2023-02-26T11:29:25;65051.56;;;4.17;100.00
44675;BME280;30388;52.038;-1.478;2023-02-26T11:31:54;65058.18;;;4.26;100.00
44675;BME280;30388;52.038;-1.478;2023-02-26T11:34:23;65052.06;;;4.40;100.00
44675;BME280;30388;52.038;-1.478;2023-02-26T11:36:54;65048.61;;;4.36;100.00
44675;BME280;30388;52.038;-1.478;2023-02-26T11:39:25;65054.01;;;4.43;100.00
44675;BME280;30388;52.038;-1.478;2023-02-26T11:41:55;65122.29;;;5.07;100.00
44675;BME280;30388;52.038;-1.478;2023-02-26T11:44:31;65097.01;;;4.75;100.00
44675;BME280;30388;52.038;-1.478;2023-02-26T11:47:04;65030.27;;;4.39;100.00
44675;BME280;30388;52.038;-1.478;2023-02-26T11:49:32;65040.24;;;4.52;100.00
44675;BME280;30388;52.038;-1.478;2023-02-26T11:52:14;65046.31;;;4.60;100.00
44675;BME280;30388;52.038;-1.478;2023-02-26T11:54:44;64998.02;;;3.97;100.00
44675;BME280;30388;52.038;-1.478;2023-02-26T11:57:16;65017.90;;;4.23;100.00
44675;BME280;30388;52.038;-1.478;2023-02-26T11:59:47;65110.73;;;4.92;100.00
44675;BME280;30388;52.038;-1.478;2023-02-26T12:02:18;65135.05;;;5.23;100.00
44675;BME280;30388;52.038;-1.478;2023-02-26T12:04:48;65136.09;;;5.24;100.00
44675;BME280;30388;52.038;-1.478;2023-02-26T12:07:16;65116.81;;;5.00;100.00
44675;BME280;30388;52.038;-1.478;2023-02-26T12:09:45;65082.70;;;4.57;100.00
44675;BME280;30388;52.038;-1.478;2023-02-26T12:12:25;65105.23;;;5.07;100.00
44675;BME280;30388;52.038;-1.478;2023-02-26T12:15:13;65182.90;;;5.85;100.00
44675;BME280;30388;52.038;-1.478;2023-02-26T12:17:56;65156.57;;;5.51;100.00
44675;BME280;30388;52.038;-1.478;2023-02-26T12:20:28;65197.82;;;6.03;100.00
44675;BME280;30388;52.038;-1.478;2023-02-26T12:23:11;65252.92;;;6.25;100.00
44675;BME280;30388;52.038;-1.478;2023-02-26T12:26:08;65307.54;;;6.71;100.00
44675;BME280;30388;52.038;-1.478;2023-02-26T12:29:31;65281.41;;;6.39;100.00
44675;BME280;30388;52.038;-1.478;2023-02-26T12:32:18;65313.52;;;6.79;100.00
44675;BME280;30388;52.038;-1.478;2023-02-26T12:35:14;65280.98;;;6.60;100.00
44675;BME280;30388;52.038;-1.478;2023-02-26T12:37:55;65251.18;;;6.22;100.00
44675;BME280;30388;52.038;-1.478;2023-02-26T12:40:56;65209.43;;;5.69;100.00
44675;BME280;30388;52.038;-1.478;2023-02-26T12:43:34;65104.66;;;5.07;100.00
44675;BME280;30388;52.038;-1.478;2023-02-26T12:46:10;65025.83;;;4.34;100.00
44675;BME280;30388;52.038;-1.478;2023-02-26T12:48:59;65048.86;;;4.14;100.00
44675;BME280;30388;52.038;-1.478;2023-02-26T12:51:42;65077.19;;;4.72;100.00
44675;BME280;30388;52.038;-1.478;2023-02-26T12:54:24;65065.20;;;4.34;100.00
44675;BME280;30388;52.038;-1.478;2023-02-26T12:57:07;65031.42;;;4.13;100.00
44675;BME280;30388;52.038;-1.478;2023-02-26T12:59:54;65069.81;;;4.40;100.00
44675;BME280;30388;52.038;-1.478;2023-02-26T13:02:57;65076.67;;;4.49;100.00
44675;BME280;30388;52.038;-1.478;2023-02-26T13:05:39;65112.99;;;5.17;100.00
44675;BME280;30388;52.038;-1.478;2023-02-26T13:08:17;65107.03;;;5.09;100.00